Time;durP1;ratioP1;P1;durP2;ratioP2;P2;SDS_P1;SDS_P2;PMS_P1;PMS_P2;Temp;Humidity;BMP_temperature;BMP_pressure;BME280_temperature;BME280_humidity;BME280_pressure;Samples;Min_cycle;Max_cycle;Signal;HPM_P1;HPM_P2
2023/10/05 00:03:44;;;;;;;0.17;0.17;;;14.00;99.90;;;;;;5009638;28;20045;-71
2023/10/05 00:06:14;;;;;;;0.20;0.20;;;14.00;99.90;;;;;;5009570;28;20042;-72
2023/10/05 00:08:49;;;;;;;0.10;0.10;;;14.00;99.90;;;;;;5009002;28;20046;-72
2023/10/05 00:11:35;;;;;;;0.10;0.10;;;14.00;99.90;;;;;;5007995;28;20038;-71
2023/10/05 00:14:07;;;;;;;0.20;0.20;;;14.00;99.90;;;;;;5004374;28;20078;-71
2023/10/05 00:16:36;;;;;;;0.10;0.10;;;14.00;99.90;;;;;;4999769;28;20502;-72
2023/10/05 00:19:15;;;;;;;0.10;0.10;;;14.00;99.90;;;;;;5008959;28;20050;-72
2023/10/05 00:21:52;;;;;;;0.20;0.20;;;14.00;99.90;;;;;;5006493;28;20648;-71
2023/10/05 00:24:35;;;;;;;0.10;0.10;;;14.00;99.90;;;;;;5009215;28;20050;-72
2023/10/05 00:27:08;;;;;;;0.10;0.10;;;14.00;99.90;;;;;;4999814;28;20057;-71
2023/10/05 00:29:41;;;;;;;0.10;0.10;;;14.00;99.90;;;;;;5009030;28;20057;-72
2023/10/05 00:32:13;;;;;;;0.20;0.20;;;14.00;99.90;;;;;;5008356;28;20057;-72
2023/10/05 00:34:40;;;;;;;0.10;0.10;;;14.00;99.90;;;;;;5006674;28;20048;-72
2023/10/05 00:37:06;;;;;;;0.20;0.20;;;13.90;99.90;;;;;;5007381;28;20057;-72
2023/10/05 00:39:32;;;;;;;0.15;0.15;;;14.00;99.90;;;;;;5009194;28;20058;-71
2023/10/05 00:44:30;;;;;;;0.10;0.10;;;14.00;99.90;;;;;;5008165;28;20056;-72
2023/10/05 00:47:00;;;;;;;0.10;0.10;;;14.00;99.90;;;;;;5008519;28;20129;-72
2023/10/05 00:52:18;;;;;;;0.10;0.10;;;13.90;99.90;;;;;;5013468;28;20050;-72
2023/10/05 00:54:50;;;;;;;0.10;0.10;;;14.00;99.90;;;;;;5006843;28;20384;-72
2023/10/05 00:57:19;;;;;;;0.10;0.10;;;13.60;99.90;;;;;;5006684;28;20057;-72
2023/10/05 00:59:55;;;;;;;0.10;0.10;;;13.90;99.90;;;;;;5010324;28;20724;-72
2023/10/05 01:02:21;;;;;;;0.10;0.10;;;13.90;99.90;;;;;;5005208;28;20100;-72
2023/10/05 01:07:27;;;;;;;0.20;0.20;;;13.90;99.90;;;;;;5009604;28;20421;-72
2023/10/05 01:12:43;;;;;;;0.10;0.10;;;13.90;99.90;;;;;;4996271;28;20061;-71
2023/10/05 01:15:14;;;;;;;0.10;0.10;;;13.90;99.90;;;;;;5004619;28;20050;-72
2023/10/05 01:17:40;;;;;;;0.10;0.10;;;13.90;99.90;;;;;;5006569;28;20046;-71
2023/10/05 01:22:45;;;;;;;0.10;0.10;;;13.90;99.90;;;;;;4994875;28;20437;-72
2023/10/05 01:25:13;;;;;;;0.20;0.20;;;13.90;99.90;;;;;;5007996;28;20042;-72
2023/10/05 01:27:50;;;;;;;0.10;0.10;;;13.90;99.90;;;;;;5006827;28;20061;-72
2023/10/05 01:30:16;;;;;;;0.20;0.20;;;13.90;99.90;;;;;;5007185;28;20050;-72
2023/10/05 01:32:43;;;;;;;0.20;0.20;;;13.90;99.90;;;;;;5005675;28;20460;-71
2023/10/05 01:35:13;;;;;;;0.10;0.10;;;13.90;99.90;;;;;;5007478;28;20670;-71
2023/10/05 01:37:44;;;;;;;0.20;0.20;;;13.90;99.90;;;;;;5005666;28;20100;-71
2023/10/05 01:42:47;;;;;;;0.20;0.20;;;13.90;99.90;;;;;;5005882;28;20057;-71
2023/10/05 01:45:21;;;;;;;0.17;0.17;;;13.90;99.90;;;;;;5005898;28;20053;-71
2023/10/05 01:47:47;;;;;;;0.10;0.10;;;13.90;99.90;;;;;;5007633;28;20046;-72
2023/10/05 01:50:23;;;;;;;0.10;0.10;;;13.90;99.90;;;;;;5008741;28;20054;-71
2023/10/05 01:53:15;;;;;;;0.10;0.10;;;13.90;99.90;;;;;;5008891;28;20065;-72
2023/10/05 01:55:44;;;;;;;0.13;0.13;;;13.90;99.90;;;;;;5011084;28;20080;-71
2023/10/05 01:58:13;;;;;;;0.10;0.10;;;13.90;99.90;;;;;;5027232;28;20104;-71
2023/10/05 02:00:41;;;;;;;0.10;0.10;;;14.00;99.90;;;;;;5013690;28;20541;-71
2023/10/05 02:03:08;;;;;;;0.20;0.20;;;13.90;99.90;;;;;;5008453;28;20581;-71
2023/10/05 02:05:34;;;;;;;0.10;0.10;;;13.90;99.90;;;;;;5008853;28;20493;-71
2023/10/05 02:08:00;;;;;;;0.10;0.10;;;13.90;99.90;;;;;;5015076;28;20049;-71
2023/10/05 02:10:26;;;;;;;0.10;0.10;;;13.90;99.90;;;;;;5008816;28;20144;-71
2023/10/05 02:12:55;;;;;;;0.20;0.20;;;14.00;99.90;;;;;;5026305;28;20053;-71
2023/10/05 02:15:28;;;;;;;0.15;0.15;;;13.90;99.90;;;;;;5010951;28;20148;-71
2023/10/05 02:17:54;;;;;;;0.10;0.10;;;13.90;99.90;;;;;;5010605;28;20050;-71
2023/10/05 02:22:58;;;;;;;0.10;0.10;;;13.90;99.90;;;;;;5007570;28;20574;-71
2023/10/05 02:25:33;;;;;;;0.13;0.13;;;14.00;99.90;;;;;;5011310;28;20087;-71
2023/10/05 02:27:59;;;;;;;0.15;0.15;;;13.90;99.90;;;;;;5010425;28;20046;-71
2023/10/05 02:30:27;;;;;;;0.10;0.10;;;14.00;99.90;;;;;;5021840;28;20052;-71
2023/10/05 02:32:58;;;;;;;0.10;0.10;;;14.00;99.90;;;;;;5010254;28;20049;-71
2023/10/05 02:35:29;;;;;;;0.20;0.20;;;14.00;99.90;;;;;;5013122;28;20076;-71
2023/10/05 02:37:58;;;;;;;0.20;0.20;;;14.00;99.90;;;;;;5028661;28;20050;-71
2023/10/05 02:40:28;;;;;;;0.20;0.20;;;14.00;99.90;;;;;;5005922;28;20080;-71
2023/10/05 02:42:54;;;;;;;0.10;0.10;;;14.00;99.90;;;;;;5009880;28;20038;-71
2023/10/05 02:45:21;;;;;;;0.17;0.17;;;14.00;99.90;;;;;;5011833;28;20056;-71
2023/10/05 02:47:51;;;;;;;0.10;0.10;;;14.00;99.90;;;;;;5011391;28;20045;-71
2023/10/05 02:50:18;;;;;;;0.20;0.20;;;14.00;99.90;;;;;;5012561;28;20057;-71
2023/10/05 02:52:44;;;;;;;0.10;0.10;;;14.00;99.90;;;;;;5010848;28;20060;-71
2023/10/05 02:55:10;;;;;;;0.10;0.10;;;14.00;99.90;;;;;;5003919;28;20057;-71
2023/10/05 02:57:39;;;;;;;0.10;0.10;;;14.00;99.90;;;;;;5011576;28;20049;-71
2023/10/05 03:00:08;;;;;;;0.10;0.10;;;14.00;99.90;;;;;;5011296;28;20607;-71
2023/10/05 03:02:37;;;;;;;0.10;0.10;;;13.40;99.90;;;;;;4991215;28;20054;-71
2023/10/05 03:05:07;;;;;;;0.10;0.10;;;14.00;99.90;;;;;;5009632;28;20536;-71
2023/10/05 03:07:32;;;;;;;0.10;0.10;;;14.00;99.90;;;;;;4994263;28;20053;-71
2023/10/05 03:09:59;;;;;;;0.20;0.20;;;14.00;99.90;;;;;;5002333;28;20034;-71
2023/10/05 03:12:25;;;;;;;0.10;0.10;;;14.00;99.90;;;;;;5011574;28;20069;-71
2023/10/05 03:14:51;;;;;;;0.10;0.10;;;14.10;99.90;;;;;;5026145;28;20069;-72
2023/10/05 03:17:21;;;;;;;0.20;0.20;;;14.10;99.90;;;;;;5009069;28;20060;-71
2023/10/05 03:19:50;;;;;;;0.10;0.10;;;14.10;99.90;;;;;;4995863;28;20046;-71
2023/10/05 03:22:16;;;;;;;0.10;0.10;;;14.10;99.90;;;;;;5011046;28;20048;-71
2023/10/05 03:24:44;;;;;;;0.15;0.15;;;14.10;99.90;;;;;;5020189;28;20049;-71
2023/10/05 03:27:11;;;;;;;0.10;0.10;;;14.20;99.90;;;;;;5030451;28;20040;-71
2023/10/05 03:29:38;;;;;;;0.20;0.20;;;14.20;99.90;;;;;;5013552;28;20053;-72
2023/10/05 03:34:34;;;;;;;0.10;0.10;;;14.20;99.90;;;;;;5011433;28;20111;-71
2023/10/05 03:37:08;;;;;;;0.20;0.20;;;14.30;99.90;;;;;;5011984;28;20448;-71
2023/10/05 03:39:48;;;;;;;0.20;0.20;;;14.30;99.90;;;;;;5012617;28;20041;-71
2023/10/05 03:42:14;;;;;;;0.17;0.17;;;14.30;99.90;;;;;;5011675;28;20103;-71
2023/10/05 03:44:40;;;;;;;0.10;0.10;;;14.30;99.90;;;;;;5012254;28;20053;-71
2023/10/05 03:47:06;;;;;;;0.10;0.10;;;14.30;99.90;;;;;;5010115;28;20050;-71
2023/10/05 03:49:31;;;;;;;0.15;0.15;;;14.30;99.90;;;;;;5012250;28;20045;-71
2023/10/05 03:51:57;;;;;;;0.10;0.10;;;14.40;99.90;;;;;;5011311;28;20061;-71
2023/10/05 03:54:26;;;;;;;0.10;0.10;;;14.40;99.90;;;;;;5012503;28;20060;-71
2023/10/05 03:57:04;;;;;;;0.13;0.13;;;14.40;99.90;;;;;;5009452;28;20052;-71
2023/10/05 03:59:33;;;;;;;0.10;0.10;;;14.40;99.90;;;;;;5012718;28;20378;-71
2023/10/05 04:02:00;;;;;;;0.20;0.20;;;14.40;99.90;;;;;;5011494;28;20052;-71
2023/10/05 04:04:34;;;;;;;0.10;0.10;;;14.40;99.90;;;;;;5011611;28;20374;-71
2023/10/05 04:07:04;;;;;;;0.10;0.10;;;14.40;99.90;;;;;;5012186;28;20561;-71
2023/10/05 04:09:35;;;;;;;0.10;0.10;;;14.40;99.90;;;;;;5011353;28;20508;-71
2023/10/05 04:12:03;;;;;;;0.10;0.10;;;14.30;99.90;;;;;;5023644;28;20087;-71
2023/10/05 04:14:29;;;;;;;0.13;0.13;;;14.40;99.90;;;;;;4993635;28;20057;-71
2023/10/05 04:16:56;;;;;;;0.15;0.15;;;14.50;99.90;;;;;;5006193;28;20033;-71
2023/10/05 04:19:22;;;;;;;0.20;0.20;;;14.30;99.90;;;;;;5029296;28;20103;-71
2023/10/05 04:21:48;;;;;;;0.10;0.10;;;14.30;99.90;;;;;;5008217;28;20136;-71
2023/10/05 04:24:14;;;;;;;0.20;0.20;;;14.40;99.90;;;;;;5008016;28;20050;-71
2023/10/05 04:26:44;;;;;;;0.20;0.20;;;14.40;99.90;;;;;;5005630;28;20065;-71
2023/10/05 04:29:16;;;;;;;0.13;0.13;;;14.30;99.90;;;;;;5009390;28;20049;-71
2023/10/05 04:31:48;;;;;;;0.20;0.20;;;14.30;99.90;;;;;;5011696;28;20042;-71
2023/10/05 04:34:20;;;;;;;0.10;0.10;;;14.30;99.90;;;;;;5007327;28;20388;-71
2023/10/05 04:36:48;;;;;;;0.10;0.10;;;14.30;99.90;;;;;;5015885;28;20053;-71
2023/10/05 04:39:25;;;;;;;0.10;0.10;;;14.30;99.90;;;;;;5028729;28;20108;-71
2023/10/05 04:41:51;;;;;;;0.17;0.17;;;14.30;99.90;;;;;;5010304;28;20053;-71
2023/10/05 04:44:16;;;;;;;0.10;0.10;;;14.30;99.90;;;;;;5011512;28;20048;-71
2023/10/05 04:46:48;;;;;;;0.10;0.10;;;14.30;99.90;;;;;;5003440;28;20374;-71
2023/10/05 04:49:16;;;;;;;0.10;0.10;;;14.30;99.90;;;;;;5012117;28;20081;-71
2023/10/05 04:51:43;;;;;;;0.20;0.20;;;14.30;99.90;;;;;;5009278;28;20091;-71
2023/10/05 04:54:10;;;;;;;0.10;0.10;;;14.30;99.90;;;;;;5011415;28;20073;-71
2023/10/05 04:56:43;;;;;;;0.10;0.10;;;14.30;99.90;;;;;;5017779;28;20084;-71
2023/10/05 05:01:56;;;;;;;0.20;0.20;;;14.30;99.90;;;;;;5024420;28;20450;-71
2023/10/05 05:07:01;;;;;;;0.20;0.20;;;14.30;99.90;;;;;;5010198;28;20053;-71
2023/10/05 05:09:33;;;;;;;0.20;0.20;;;14.30;99.90;;;;;;5007666;28;20412;-71
2023/10/05 05:12:08;;;;;;;0.20;0.20;;;14.30;99.90;;;;;;5007813;28;20042;-71
2023/10/05 05:14:41;;;;;;;0.20;0.20;;;14.30;99.90;;;;;;5010325;28;20073;-72
2023/10/05 05:17:10;;;;;;;0.10;0.10;;;14.30;99.90;;;;;;5011159;28;20053;-71
2023/10/05 05:19:38;;;;;;;0.20;0.20;;;14.30;99.90;;;;;;5008766;28;20050;-71
2023/10/05 05:22:08;;;;;;;0.10;0.10;;;14.30;99.90;;;;;;5009459;28;20396;-71
2023/10/05 05:24:35;;;;;;;0.20;0.20;;;14.30;99.90;;;;;;5011272;28;20057;-71
2023/10/05 05:27:10;;;;;;;0.20;0.20;;;14.30;99.90;;;;;;5000017;28;20061;-71
2023/10/05 05:29:36;;;;;;;0.20;0.20;;;14.30;99.90;;;;;;5007579;28;20092;-71
2023/10/05 05:32:11;;;;;;;0.10;0.10;;;14.30;99.90;;;;;;5008350;28;20520;-71
2023/10/05 05:34:38;;;;;;;0.20;0.20;;;14.30;99.90;;;;;;5028084;28;20041;-71
2023/10/05 05:37:07;;;;;;;0.10;0.10;;;14.30;99.90;;;;;;5009850;28;20102;-71
2023/10/05 05:39:39;;;;;;;0.10;0.10;;;14.30;99.90;;;;;;5011920;28;20060;-71
2023/10/05 05:42:14;;;;;;;0.10;0.10;;;14.40;99.90;;;;;;5007828;28;20481;-71
2023/10/05 05:44:40;;;;;;;0.10;0.10;;;14.40;99.90;;;;;;5017777;28;20077;-71
2023/10/05 05:47:10;;;;;;;0.10;0.10;;;14.40;99.90;;;;;;5009926;28;20397;-71
2023/10/05 05:49:46;;;;;;;0.10;0.10;;;14.40;99.90;;;;;;5010211;28;20044;-71
2023/10/05 05:52:13;;;;;;;0.10;0.10;;;14.40;99.90;;;;;;5008585;28;20091;-71
2023/10/05 05:54:41;;;;;;;0.17;0.17;;;14.40;99.90;;;;;;5010679;28;20459;-71
2023/10/05 05:57:07;;;;;;;0.10;0.10;;;14.40;99.90;;;;;;5008105;28;20094;-71
2023/10/05 05:59:38;;;;;;;0.15;0.15;;;14.40;99.90;;;;;;5005878;28;20057;-71
2023/10/05 06:02:07;;;;;;;0.20;0.20;;;14.40;99.90;;;;;;5010043;28;20058;-71
2023/10/05 06:04:37;;;;;;;0.10;0.10;;;14.40;99.90;;;;;;5013323;28;20495;-71
2023/10/05 06:07:11;;;;;;;0.20;0.20;;;14.50;99.90;;;;;;5014301;28;20107;-71
2023/10/05 06:09:42;;;;;;;0.10;0.10;;;14.50;99.90;;;;;;5014641;28;20042;-72
2023/10/05 06:12:10;;;;;;;0.10;0.10;;;14.50;99.90;;;;;;5010782;28;20053;-71
2023/10/05 06:14:37;;;;;;;0.10;0.10;;;14.50;99.90;;;;;;5012637;28;20053;-71
2023/10/05 06:17:03;;;;;;;0.20;0.20;;;14.50;99.90;;;;;;5009548;28;20088;-72
2023/10/05 06:19:29;;;;;;;0.10;0.10;;;14.60;99.90;;;;;;5014202;28;20385;-71
2023/10/05 06:21:54;;;;;;;0.10;0.10;;;14.60;99.90;;;;;;5013899;28;20033;-71
2023/10/05 06:24:20;;;;;;;0.10;0.10;;;14.60;99.90;;;;;;5015367;28;20037;-71
2023/10/05 06:26:46;;;;;;;0.20;0.20;;;14.60;99.90;;;;;;5010279;28;20045;-71
2023/10/05 06:29:13;;;;;;;0.10;0.10;;;14.70;99.90;;;;;;5012976;28;20044;-71
2023/10/05 06:31:40;;;;;;;0.10;0.10;;;14.60;99.90;;;;;;5013167;28;20207;-71
2023/10/05 06:34:09;;;;;;;0.13;0.13;;;14.70;99.90;;;;;;5012873;28;20163;-71
2023/10/05 06:36:39;;;;;;;0.20;0.20;;;14.70;99.90;;;;;;5011184;28;20057;-71
2023/10/05 06:39:06;;;;;;;0.10;0.10;;;14.70;99.90;;;;;;5013327;28;20072;-72
2023/10/05 06:41:36;;;;;;;0.10;0.10;;;14.70;99.90;;;;;;5010925;28;20064;-71
2023/10/05 06:44:03;;;;;;;0.10;0.10;;;14.80;99.90;;;;;;5001892;28;20045;-72
2023/10/05 06:46:29;;;;;;;0.10;0.10;;;14.80;99.90;;;;;;5012166;28;20397;-71
2023/10/05 06:48:55;;;;;;;0.20;0.20;;;14.80;99.90;;;;;;5031638;28;20048;-71
2023/10/05 06:51:28;;;;;;;0.20;0.20;;;14.80;99.90;;;;;;5013660;28;20049;-71
2023/10/05 06:53:55;;;;;;;0.10;0.10;;;14.90;99.90;;;;;;5011179;28;20404;-71
2023/10/05 06:56:21;;;;;;;0.20;0.20;;;14.90;99.90;;;;;;5013747;28;20140;-71
2023/10/05 06:58:47;;;;;;;0.10;0.10;;;14.90;99.90;;;;;;5009494;28;20041;-71
2023/10/05 07:01:13;;;;;;;0.10;0.10;;;15.00;99.90;;;;;;5026473;28;20056;-71
2023/10/05 07:03:39;;;;;;;0.10;0.10;;;15.00;99.90;;;;;;5012020;28;20049;-71
2023/10/05 07:06:05;;;;;;;0.20;0.20;;;15.00;99.90;;;;;;5011996;28;20398;-71
2023/10/05 07:08:34;;;;;;;0.10;0.10;;;15.10;99.90;;;;;;5010036;28;20060;-71
2023/10/05 07:11:00;;;;;;;0.20;0.20;;;15.10;99.90;;;;;;5012292;28;20058;-72
2023/10/05 07:13:28;;;;;;;0.10;0.10;;;15.10;99.90;;;;;;5006630;28;20045;-71
2023/10/05 07:15:55;;;;;;;0.20;0.20;;;15.20;99.90;;;;;;5024126;28;20041;-71
2023/10/05 07:18:21;;;;;;;0.10;0.10;;;15.20;99.90;;;;;;5009091;28;20132;-71
2023/10/05 07:20:48;;;;;;;0.20;0.20;;;15.20;99.90;;;;;;5010650;28;20430;-71
2023/10/05 07:23:14;;;;;;;0.20;0.20;;;15.20;99.90;;;;;;5010115;28;20045;-71
2023/10/05 07:25:41;;;;;;;0.10;0.10;;;15.30;99.90;;;;;;5009162;28;20113;-71
2023/10/05 07:28:14;;;;;;;0.10;0.10;;;15.30;99.90;;;;;;5027874;28;20125;-72
2023/10/05 07:30:41;;;;;;;0.10;0.10;;;15.40;99.90;;;;;;5011406;28;20484;-71
2023/10/05 07:33:06;;;;;;;0.20;0.20;;;15.40;99.90;;;;;;5008667;28;20095;-71
2023/10/05 07:35:32;;;;;;;0.10;0.10;;;15.40;99.90;;;;;;5011747;28;20049;-72
2023/10/05 07:37:59;;;;;;;0.10;0.10;;;15.50;99.90;;;;;;5031072;28;20050;-71
2023/10/05 07:40:25;;;;;;;0.10;0.10;;;15.50;99.90;;;;;;5012827;28;20120;-71
2023/10/05 07:42:51;;;;;;;0.10;0.10;;;15.50;99.90;;;;;;5011491;28;20048;-71
2023/10/05 07:45:17;;;;;;;0.20;0.20;;;15.60;99.90;;;;;;5009907;28;20045;-71
2023/10/05 07:47:49;;;;;;;0.10;0.10;;;15.60;99.90;;;;;;5011417;28;20049;-71
2023/10/05 07:50:15;;;;;;;0.10;0.10;;;15.60;99.90;;;;;;5009347;28;20056;-72
2023/10/05 07:52:43;;;;;;;0.20;0.20;;;15.60;99.90;;;;;;5011132;28;20050;-72
2023/10/05 07:55:10;;;;;;;0.20;0.20;;;15.60;99.90;;;;;;5009328;28;20045;-72
2023/10/05 07:57:36;;;;;;;0.10;0.10;;;15.60;99.90;;;;;;5005685;28;20037;-72
2023/10/05 08:00:03;;;;;;;0.15;0.15;;;15.50;99.90;;;;;;5009705;28;20562;-72
2023/10/05 08:02:29;;;;;;;0.10;0.10;;;15.50;99.90;;;;;;5007520;28;20115;-72
2023/10/05 08:04:55;;;;;;;0.15;0.15;;;15.50;99.90;;;;;;5009314;28;20515;-72
2023/10/05 08:07:21;;;;;;;0.20;0.20;;;15.50;99.90;;;;;;5011389;28;20095;-73
2023/10/05 08:09:47;;;;;;;0.13;0.13;;;15.50;99.90;;;;;;5012405;28;20566;-73
2023/10/05 08:12:12;;;;;;;0.20;0.20;;;15.40;99.90;;;;;;5026723;28;20045;-72
2023/10/05 08:14:38;;;;;;;0.20;0.20;;;15.50;99.90;;;;;;5012117;28;20408;-72
2023/10/05 08:17:05;;;;;;;0.10;0.10;;;15.50;99.90;;;;;;5013095;28;20546;-72
2023/10/05 08:19:30;;;;;;;0.10;0.10;;;15.50;99.90;;;;;;5010923;28;20041;-72
2023/10/05 08:21:56;;;;;;;0.10;0.10;;;15.40;99.90;;;;;;5010925;28;20079;-73
2023/10/05 08:24:23;;;;;;;0.10;0.10;;;15.40;99.90;;;;;;5009256;28;20038;-72
2023/10/05 08:26:52;;;;;;;0.10;0.10;;;15.40;99.90;;;;;;5002100;28;20473;-72
2023/10/05 08:29:18;;;;;;;0.10;0.10;;;15.40;99.90;;;;;;5005808;28;20627;-78
2023/10/05 08:31:44;;;;;;;0.10;0.10;;;15.40;99.90;;;;;;5005177;28;20053;-72
2023/10/05 08:34:20;;;;;;;0.10;0.10;;;15.40;99.90;;;;;;5027022;28;20033;-72
2023/10/05 08:36:51;;;;;;;0.20;0.20;;;15.40;99.90;;;;;;5011875;28;20045;-72
2023/10/05 08:39:22;;;;;;;0.17;0.17;;;15.50;99.90;;;;;;5012361;28;20045;-72
2023/10/05 08:41:48;;;;;;;0.20;0.20;;;15.50;99.90;;;;;;5029342;28;20045;-72
2023/10/05 08:44:26;;;;;;;0.15;0.15;;;15.50;99.90;;;;;;5027672;28;20048;-72
2023/10/05 08:46:55;;;;;;;0.20;0.20;;;15.50;99.90;;;;;;5011759;28;20536;-72
2023/10/05 08:49:23;;;;;;;0.10;0.10;;;15.50;99.90;;;;;;5010929;28;20076;-72
2023/10/05 08:51:50;;;;;;;0.10;0.10;;;15.40;99.90;;;;;;5010392;28;20060;-73
2023/10/05 08:54:21;;;;;;;0.20;0.20;;;15.40;99.90;;;;;;5010591;28;20053;-73
2023/10/05 08:56:48;;;;;;;0.20;0.20;;;15.50;99.90;;;;;;5009529;28;20117;-72
2023/10/05 08:59:14;;;;;;;0.10;0.10;;;15.50;99.90;;;;;;5013707;28;20376;-72
2023/10/05 09:01:45;;;;;;;0.10;0.10;;;15.50;99.90;;;;;;5000554;28;20050;-72
2023/10/05 09:07:08;;;;;;;0.10;0.10;;;15.50;99.90;;;;;;5012599;28;20057;-72
2023/10/05 09:09:54;;;;;;;0.17;0.17;;;15.50;99.90;;;;;;5009464;28;20091;-72
2023/10/05 09:12:40;;;;;;;0.10;0.10;;;15.60;99.90;;;;;;5000639;28;20077;-72
2023/10/05 09:15:14;;;;;;;0.15;0.15;;;15.60;99.90;;;;;;5009477;28;20108;-72
2023/10/05 09:17:58;;;;;;;0.17;0.17;;;15.70;99.90;;;;;;5010138;28;20124;-72
2023/10/05 09:20:23;;;;;;;0.10;0.10;;;15.80;99.90;;;;;;5011215;28;20053;-72
2023/10/05 09:22:51;;;;;;;0.10;0.10;;;15.80;99.90;;;;;;5010767;28;20041;-73
2023/10/05 09:25:26;;;;;;;0.20;0.20;;;15.80;99.90;;;;;;5021362;28;20045;-73
2023/10/05 09:27:52;;;;;;;0.20;0.20;;;15.80;99.90;;;;;;5011199;28;20087;-72
2023/10/05 09:30:21;;;;;;;0.20;0.20;;;15.80;99.90;;;;;;5009260;28;20493;-73
2023/10/05 09:32:48;;;;;;;0.10;0.10;;;15.80;99.90;;;;;;5008998;28;20432;-72
2023/10/05 09:35:33;;;;;;;0.15;0.15;;;15.80;99.90;;;;;;5009409;28;20901;-72
2023/10/05 09:38:00;;;;;;;0.10;0.10;;;15.90;99.90;;;;;;5031531;28;20101;-72
2023/10/05 09:40:29;;;;;;;0.20;0.20;;;15.90;99.90;;;;;;5013436;28;20355;-72
2023/10/05 09:42:56;;;;;;;0.20;0.20;;;15.90;99.90;;;;;;5014986;28;20045;-72
2023/10/05 09:45:23;;;;;;;0.10;0.10;;;16.00;99.90;;;;;;5011987;28;20049;-72
2023/10/05 09:47:53;;;;;;;0.20;0.20;;;16.00;99.90;;;;;;5013900;28;20051;-72
2023/10/05 09:50:21;;;;;;;0.20;0.20;;;16.00;99.90;;;;;;5014243;28;20046;-76
2023/10/05 09:52:48;;;;;;;0.10;0.10;;;16.10;99.90;;;;;;5014732;28;20080;-76
2023/10/05 09:55:21;;;;;;;0.20;0.20;;;16.20;99.90;;;;;;5013651;28;20077;-72
2023/10/05 09:57:51;;;;;;;0.20;0.20;;;16.20;99.90;;;;;;5013758;28;20053;-72
2023/10/05 10:00:30;;;;;;;0.10;0.10;;;16.10;99.90;;;;;;5013989;28;20068;-72
2023/10/05 10:02:58;;;;;;;0.10;0.10;;;16.40;99.90;;;;;;5011746;28;20099;-72
2023/10/05 10:05:30;;;;;;;0.20;0.20;;;16.50;99.90;;;;;;5013893;28;20420;-72
2023/10/05 10:08:12;;;;;;;0.20;0.20;;;16.50;99.90;;;;;;5014199;28;20049;-72
2023/10/05 10:10:43;;;;;;;0.20;0.20;;;16.60;99.90;;;;;;5006027;28;20546;-72
2023/10/05 10:13:14;;;;;;;0.20;0.20;;;16.70;99.90;;;;;;5010930;28;20049;-72
2023/10/05 10:15:40;;;;;;;0.20;0.20;;;16.80;99.90;;;;;;5013058;28;20037;-72
2023/10/05 10:18:14;;;;;;;0.20;0.20;;;16.80;99.90;;;;;;5012853;28;20549;-72
2023/10/05 10:20:45;;;;;;;0.20;0.20;;;16.90;99.90;;;;;;5013168;28;20046;-72
2023/10/05 10:23:18;;;;;;;0.20;0.20;;;17.00;99.90;;;;;;5011198;28;20485;-72
2023/10/05 10:25:45;;;;;;;0.10;0.10;;;17.00;99.90;;;;;;5009911;28;20451;-72
2023/10/05 10:28:16;;;;;;;0.20;0.20;;;17.10;99.90;;;;;;5015155;28;20064;-72
2023/10/05 10:30:46;;;;;;;;;;;17.10;99.90;;;;;;5013866;28;20053;-72
2023/10/05 10:33:30;;;;;;;0.20;0.20;;;17.20;99.90;;;;;;5012074;28;19925;-72
2023/10/05 10:35:57;;;;;;;0.20;0.20;;;17.20;99.90;;;;;;4994328;28;20046;-72
2023/10/05 10:38:24;;;;;;;0.20;0.20;;;17.20;99.90;;;;;;5004126;28;20048;-73
2023/10/05 10:41:07;;;;;;;0.20;0.20;;;17.30;99.90;;;;;;5014478;28;20045;-72
2023/10/05 10:43:33;;;;;;;0.20;0.20;;;17.40;99.90;;;;;;5013452;28;20049;-72
2023/10/05 10:46:00;;;;;;;0.20;0.20;;;17.50;99.90;;;;;;5029349;28;20471;-72
2023/10/05 10:48:29;;;;;;;0.13;0.13;;;17.50;99.90;;;;;;5024350;28;20476;-73
2023/10/05 10:50:59;;;;;;;0.20;0.20;;;17.60;99.90;;;;;;5011240;28;20049;-72
2023/10/05 10:53:30;;;;;;;0.20;0.20;;;17.60;99.90;;;;;;5011033;28;20078;-73
2023/10/05 10:56:04;;;;;;;0.20;0.20;;;17.60;99.90;;;;;;5034156;28;20057;-73
2023/10/05 10:58:31;;;;;;;0.20;0.20;;;17.60;99.90;;;;;;5019148;28;20758;-72
2023/10/05 11:01:22;;;;;;;0.20;0.20;;;17.60;99.90;;;;;;5011439;28;20576;-72
2023/10/05 11:03:55;;;;;;;0.20;0.20;;;17.60;99.90;;;;;;5009142;28;20045;-71
2023/10/05 11:06:26;;;;;;;0.10;0.10;;;17.60;99.90;;;;;;5003526;28;20270;-72
2023/10/05 11:08:52;;;;;;;0.20;0.20;;;17.50;99.90;;;;;;5005683;28;20037;-72
2023/10/05 11:11:19;;;;;;;0.20;0.20;;;17.50;99.90;;;;;;5010470;28;20320;-72
2023/10/05 11:13:54;;;;;;;0.20;0.20;;;17.30;99.90;;;;;;5026510;28;20519;-72
2023/10/05 11:16:21;;;;;;;0.20;0.20;;;17.30;99.90;;;;;;5027044;28;20131;-73
2023/10/05 11:19:04;;;;;;;0.13;0.13;;;17.30;99.90;;;;;;5012755;28;20050;-73
2023/10/05 11:21:43;;;;;;;0.20;0.20;;;17.40;99.90;;;;;;5027727;28;20053;-73
2023/10/05 11:24:09;;;;;;;0.20;0.20;;;17.50;99.90;;;;;;5014402;28;20049;-73
2023/10/05 11:29:28;;;;;;;0.20;0.20;;;17.70;99.90;;;;;;5031654;28;20049;-72
2023/10/05 11:32:10;;;;;;;0.20;0.20;;;17.70;99.90;;;;;;5013518;28;20489;-72
2023/10/05 11:34:39;;;;;;;0.20;0.20;;;17.80;99.90;;;;;;5030660;28;20440;-73
2023/10/05 11:37:15;;;;;;;0.10;0.10;;;17.80;99.90;;;;;;5011386;28;20138;-72
2023/10/05 11:39:50;;;;;;;0.10;0.10;;;18.00;99.90;;;;;;5013978;28;20049;-72
2023/10/05 11:42:24;;;;;;;0.20;0.20;;;18.10;99.90;;;;;;5010276;28;20052;-72
2023/10/05 11:44:55;;;;;;;0.20;0.20;;;18.20;99.90;;;;;;5006482;28;20287;-72
2023/10/05 11:47:32;;;;;;;;;;;18.20;99.90;;;;;;5013379;28;20123;-73
2023/10/05 11:50:08;;;;;;;0.20;0.20;;;18.10;99.90;;;;;;5011072;28;20482;-71
2023/10/05 11:52:38;;;;;;;0.20;0.20;;;18.10;99.90;;;;;;4993636;28;20049;-72
2023/10/05 11:55:08;;;;;;;0.20;0.20;;;18.10;99.90;;;;;;5007819;28;20459;-73
2023/10/05 11:57:33;;;;;;;0.10;0.10;;;18.20;99.90;;;;;;5012974;28;20056;-72
2023/10/05 11:59:59;;;;;;;0.10;0.10;;;18.30;99.90;;;;;;5014151;28;20488;-72
2023/10/05 12:02:26;;;;;;;0.20;0.20;;;18.40;99.90;;;;;;5026894;28;20096;-72
2023/10/05 12:04:52;;;;;;;0.10;0.10;;;18.50;99.90;;;;;;4999315;28;20065;-72
2023/10/05 12:07:17;;;;;;;0.20;0.20;;;18.60;99.90;;;;;;5013257;28;20142;-71
2023/10/05 12:09:43;;;;;;;0.10;0.10;;;18.70;99.90;;;;;;5012698;28;20037;-72
2023/10/05 12:12:13;;;;;;;0.20;0.20;;;18.80;99.90;;;;;;5026271;28;20160;-72
2023/10/05 12:14:39;;;;;;;0.20;0.20;;;19.00;99.90;;;;;;5016416;28;20048;-72
2023/10/05 12:17:05;;;;;;;0.20;0.20;;;19.20;99.90;;;;;;5012039;28;20449;-72
2023/10/05 12:19:33;;;;;;;0.13;0.13;;;19.20;99.90;;;;;;5010925;28;20136;-72
2023/10/05 12:22:01;;;;;;;0.20;0.20;;;19.20;99.90;;;;;;5012092;28;20052;-72
2023/10/05 12:24:28;;;;;;;0.20;0.20;;;19.10;99.90;;;;;;5011380;28;20041;-72
2023/10/05 12:26:55;;;;;;;0.20;0.20;;;19.10;99.90;;;;;;5007637;28;20614;-72
2023/10/05 12:29:21;;;;;;;0.20;0.20;;;19.20;99.90;;;;;;5011441;28;20068;-72
2023/10/05 12:31:47;;;;;;;0.10;0.10;;;19.20;99.90;;;;;;5012028;28;20099;-72
2023/10/05 12:34:18;;;;;;;0.20;0.20;;;19.30;99.90;;;;;;5012342;28;20481;-72
2023/10/05 12:36:48;;;;;;;0.20;0.20;;;19.30;99.90;;;;;;5010202;28;20041;-72
2023/10/05 12:39:14;;;;;;;0.20;0.20;;;19.30;99.90;;;;;;5012522;28;20065;-72
2023/10/05 12:41:43;;;;;;;0.20;0.20;;;19.30;99.90;;;;;;5011912;28;20642;-71
2023/10/05 12:44:13;;;;;;;0.20;0.20;;;19.20;99.90;;;;;;5011636;28;20427;-72
2023/10/05 12:46:45;;;;;;;0.20;0.20;;;19.20;99.90;;;;;;5010788;28;20084;-71
2023/10/05 12:49:15;;;;;;;0.20;0.20;;;19.10;99.90;;;;;;5015096;28;20116;-71
2023/10/05 12:51:42;;;;;;;0.20;0.20;;;18.90;99.90;;;;;;5010256;28;20489;-72
2023/10/05 12:54:09;;;;;;;0.15;0.15;;;18.70;99.90;;;;;;5011703;28;20464;-72
2023/10/05 12:56:40;;;;;;;0.20;0.20;;;18.50;99.90;;;;;;5021172;28;20098;-72
2023/10/05 12:59:07;;;;;;;0.20;0.20;;;18.30;99.90;;;;;;5013167;28;20175;-73
2023/10/05 13:01:35;;;;;;;0.13;0.13;;;18.10;99.90;;;;;;5009277;28;20104;-72
2023/10/05 13:04:05;;;;;;;0.20;0.20;;;18.00;99.90;;;;;;5007533;28;20054;-73
2023/10/05 13:06:32;;;;;;;0.10;0.10;;;17.90;99.90;;;;;;5007761;28;20045;-73
2023/10/05 13:09:01;;;;;;;0.13;0.13;;;17.80;99.90;;;;;;5011250;28;20049;-73
2023/10/05 13:11:29;;;;;;;0.20;0.20;;;17.70;99.90;;;;;;4991441;28;20120;-73
2023/10/05 13:13:55;;;;;;;0.15;0.15;;;17.70;99.90;;;;;;5006955;28;20046;-73
2023/10/05 13:16:21;;;;;;;0.20;0.20;;;17.80;99.90;;;;;;5011379;28;20054;-73
2023/10/05 13:18:50;;;;;;;0.10;0.10;;;17.90;99.90;;;;;;5011388;28;20128;-73
2023/10/05 13:21:16;;;;;;;0.10;0.10;;;18.00;99.90;;;;;;5024977;28;20261;-73
2023/10/05 13:23:42;;;;;;;0.20;0.20;;;18.40;99.90;;;;;;5010843;28;20133;-72
2023/10/05 13:26:08;;;;;;;0.10;0.10;;;18.60;99.90;;;;;;5010115;28;20045;-72
2023/10/05 13:28:34;;;;;;;0.10;0.10;;;18.80;99.90;;;;;;5009920;28;20033;-73
2023/10/05 13:31:06;;;;;;;0.10;0.10;;;;;;;;;;5010650;28;20041;-73
2023/10/05 13:33:39;;;;;;;0.20;0.20;;;20.70;99.90;;;;;;5012055;28;20121;-73